Hovedside
METAR-TAF:

METAR-TAF

Lufthavner :

Trondheim lufthavn. Værnes

Trondheim, Norge

breddegrad: 63-28N, lengdegrad: 010-56E, høyde over havet: 1 m

Gjeldene værobservasjon

Denne rapporten ble laget for 39 minutter siden, klokken 19:50 UTC
Vind 5 kt fra Øst-sørøst
Temperatur -5°C
Luftfuktighet 86%
Trykk 1013 hPa
Sikt 10 km eller mer
ingen skyer under 1500 m og ingen bygeskyer

METAR: ENVA 141950Z 11005KT CAVOK M05/M07 Q1013 NOSIG RMK WIND 670FT 16007KT

Tid: 21:29 (20:29 UTC)

Varsel

Varsel gyldig fra 14. klokken 18 UTC til 15. klokken 18 UTC
Vind 7 kt fra Øst
Sikt 10 km eller mer
Få skyer i en høyde av 3000 ft

TAF: ENVA 1418/1518 10007KT 9999 FEW030

Værobservasjoner og værvarsel for over 4000 flyplasser (METAR- og TAF-rapporter).

Tilgjengelige stasjoner er representert av de røde og gule prikkene på kartet.

Hold musepekeren over prikken for å se navnet på stasjonen.

Klikk så for å se værobservasjoner og -varsler.

For å forandre kartet kan du klikke på den grønne knappen med svart kryss for å zoome inn, på den grønne knappen med strek for å zoome ut, eller på de grønne pilene for å se tilstøtende kart.


METAR-TAF: